Weather at Bari Police Heliport

Public forecast

Using degrees Celsius for public forecast. Weather courtesy of forecast.io.

Closest aviation weather report (METAR) to Bari Police Heliport

Closest report is Bari Karol Wojtyła Airport, 0.3 nm (0.5 km) N.

2024/05/19 23:20 (retrieved 15 minutes ago)

LIBD 192320Z 14003KT 110V180 CAVOK 18/17 Q1011

Closest aviation forecast (TAF) to Bari Police Heliport

Closest forecast is Bari Karol Wojtyła Airport, 0.3 nm (0.5 km) N.

2024/05/19 18:00 (retrieved 6 hours ago)

TAF LIBD 191700Z 1918/2018 VRB05KT 8000 SCT030 TEMPO 1918/1919 TSRA TEMPO 2000/2005 0500 FG BKN005 BECMG 2009/2011 08012KT TEMPO 2012/2015 SHRA